New Ulm, MN

9:16 PM CST on December 11, 2019 (GMT -0600)
New Ulm Municipal

Weather History for KULM - October, 2019

Change the Weather History Date:

Sunday, October 13, 2019

  Actual Average Record
Temperature  
Mean Temperature 37 °F -  
Max Temperature 42 °F 62 °F 88 °F (1975)
Min Temperature 32 °F 40 °F 25 °F (1965)
Degree Days  
Heating Degree Days 28    
Moisture  
Dew Point 29 °F    
Average Humidity 72    
Maximum Humidity 100    
Minimum Humidity 57    
Precipitation  
Precipitation 0.00 in - - ()
Sea Level Pressure  
Sea Level Pressure 29.82 in    
Wind  
Wind Speed 13 mph ()    
Max Wind Speed 21 mph    
Max Gust Speed 26 mph    
Visibility 9.9 miles    
Events      
Averages and records for this station are not official NWS values.
T = Trace of Precipitation, MM = Missing Value Source: Averaged Metar Reports

Daily Weather History Graph

Daily Weather History Graph

Search for Another Location

Airport or City:

Astronomy

Oct. 13, 2019 Rise Set
Actual Time 7:30 AM CDT 6:37 PM CDT
Civil Twilight 7:01 AM CDT 7:06 PM CDT
Nautical Twilight 6:27 AM CDT 7:40 PM CDT
Astronomical Twilight 5:53 AM CDT 8:13 PM CDT
Moon 7:02 PM CDT (10/13) 7:01 AM CDT (10/13)
Length of Visible Light 12h 05m
Length of Day
11h 07m
Full, 100% of the Moon is Illuminated
Oct 13
Full
Oct 13
Full
Oct 21
Last Quarter
Oct 27
New
Nov 4
First Quarter

Hourly Weather History & Observations

Time (CDT) Temp. Windchill Dew Point Humidity Pressure Visibility Wind Dir Wind Speed Gust Speed Precip Events Conditions
12:15 AM 35.6 °F 25.5 °F 28.4 °F 75% 29.71 in 10.0 mi West 17.3 mph 21.9 mph N/A   Overcast
12:35 AM 35.6 °F 25.2 °F 28.4 °F 75% 29.70 in 10.0 mi West 18.4 mph 25.3 mph N/A   Overcast
12:36 AM 35.6 °F 25.5 °F 28.4 °F 75% 29.70 in 10.0 mi West 17.3 mph 25.3 mph N/A   Overcast
12:55 AM 35.6 °F 26.6 °F 28.4 °F 75% 29.71 in 10.0 mi West 13.8 mph - N/A   Overcast
1:15 AM 35.6 °F 26.2 °F 28.4 °F 75% 29.71 in 10.0 mi West 15.0 mph 23.0 mph N/A   Overcast
1:16 AM 35.6 °F 26.6 °F 28.4 °F 75% 29.70 in 10.0 mi West 13.8 mph 23.0 mph N/A   Overcast
1:35 AM 35.6 °F 27.1 °F 28.4 °F 75% 29.71 in 10.0 mi West 12.7 mph 18.4 mph N/A   Overcast
1:36 AM 35.6 °F 26.6 °F 28.4 °F 75% 29.71 in 10.0 mi West 13.8 mph 18.4 mph N/A   Overcast
1:55 AM 35.6 °F 26.6 °F 28.4 °F 75% 29.71 in 10.0 mi West 13.8 mph 20.7 mph N/A   Overcast
1:56 AM 35.6 °F 26.2 °F 28.4 °F 75% 29.71 in 10.0 mi West 15.0 mph 20.7 mph N/A   Overcast
2:15 AM 33.8 °F 24.3 °F 28.4 °F 81% 29.71 in 10.0 mi West 13.8 mph - N/A   Overcast
2:16 AM 33.8 °F 24.8 °F 28.4 °F 81% 29.71 in 10.0 mi WSW 12.7 mph - N/A   Overcast
2:35 AM 33.8 °F 25.8 °F 28.4 °F 81% 29.72 in 10.0 mi West 10.4 mph - N/A   Overcast
2:55 AM 33.8 °F 24.3 °F 28.4 °F 81% 29.72 in 10.0 mi West 13.8 mph 18.4 mph N/A   Overcast
3:15 AM 35.6 °F 26.6 °F 28.4 °F 75% 29.72 in 10.0 mi West 13.8 mph 17.3 mph N/A   Overcast
3:16 AM 35.6 °F 26.2 °F 28.4 °F 75% 29.72 in 10.0 mi West 15.0 mph - N/A   Overcast
3:35 AM 35.6 °F 26.6 °F 28.4 °F 75% 29.72 in 10.0 mi West 13.8 mph 21.9 mph N/A   Overcast
3:55 AM 35.6 °F 27.1 °F 28.4 °F 75% 29.73 in 10.0 mi West 12.7 mph 19.6 mph N/A   Overcast
3:56 AM 35.6 °F 27.5 °F 28.4 °F 75% 29.72 in 10.0 mi West 11.5 mph - N/A   Overcast
4:15 AM 35.6 °F 27.5 °F 28.4 °F 75% 29.72 in 10.0 mi West 11.5 mph 18.4 mph N/A   Overcast
4:35 AM 35.6 °F 27.5 °F 28.4 °F 75% 29.72 in 10.0 mi West 11.5 mph - N/A   Overcast
4:36 AM 35.6 °F 27.1 °F 28.4 °F 75% 29.72 in 10.0 mi West 12.7 mph - N/A   Overcast
4:55 AM 35.6 °F 27.1 °F 28.4 °F 75% 29.72 in 10.0 mi West 12.7 mph - N/A   Overcast
5:15 AM 35.6 °F 26.6 °F 28.4 °F 75% 29.73 in 10.0 mi West 13.8 mph 18.4 mph N/A   Overcast
5:16 AM 35.6 °F 27.1 °F 28.4 °F 75% 29.73 in 10.0 mi West 12.7 mph 18.4 mph N/A   Overcast
5:42 AM 35.6 °F 26.6 °F 28.4 °F 75% 29.73 in 10.0 mi West 13.8 mph 18.4 mph N/A   Overcast
5:55 AM 35.6 °F 27.5 °F 28.4 °F 75% 29.73 in 10.0 mi West 11.5 mph 19.6 mph N/A   Overcast
6:15 AM 35.6 °F 26.6 °F 28.4 °F 75% 29.74 in 10.0 mi West 13.8 mph - N/A   Overcast
6:16 AM 35.6 °F 26.6 °F 28.4 °F 75% 29.74 in 10.0 mi West 13.8 mph - N/A   Overcast
6:35 AM 35.6 °F 26.2 °F 28.4 °F 75% 29.74 in 10.0 mi West 15.0 mph - N/A   Overcast
6:55 AM 35.6 °F 26.2 °F 28.4 °F 75% 29.75 in 10.0 mi West 15.0 mph 18.4 mph N/A   Overcast
7:15 AM 35.6 °F 26.6 °F 28.4 °F 75% 29.75 in 10.0 mi West 13.8 mph - N/A   Overcast
7:35 AM 35.6 °F 26.6 °F 28.4 °F 75% 29.75 in 10.0 mi West 13.8 mph - N/A   Overcast
7:56 AM - - - N/A% - 10.0 mi West 11.5 mph 18.4 mph N/A   Overcast
8:15 AM 32.0 °F 23.0 °F 32.0 °F 100% 29.74 in 10.0 mi West 11.5 mph - N/A   Overcast
8:16 AM 32.0 °F 22.5 °F 32.0 °F 100% 29.75 in 10.0 mi West 12.7 mph - N/A   Mostly Cloudy
8:35 AM 35.6 °F 27.1 °F 28.4 °F 75% 29.76 in - West 12.7 mph - N/A   Overcast
8:55 AM 35.6 °F 25.9 °F 28.4 °F 75% 29.76 in 1.0 mi WNW 16.1 mph 23.0 mph N/A   Overcast
9:15 AM 35.6 °F 27.1 °F 28.4 °F 75% 29.76 in 10.0 mi West 12.7 mph 19.6 mph N/A   Overcast
9:35 AM 35.6 °F 26.2 °F 28.4 °F 75% 29.77 in 10.0 mi West 15.0 mph 18.4 mph N/A   Overcast
9:55 AM 37.4 °F 28.5 °F 28.4 °F 70% 29.78 in 10.0 mi West 15.0 mph 20.7 mph N/A   Overcast
9:56 AM 37.4 °F 28.5 °F 28.4 °F 70% 29.78 in 10.0 mi West 15.0 mph 20.7 mph N/A   Overcast
10:15 AM 37.4 °F 27.8 °F 28.4 °F 70% 29.78 in 10.0 mi WNW 17.3 mph 20.7 mph N/A   Overcast
10:35 AM 37.4 °F 27.2 °F 28.4 °F 70% 29.79 in 10.0 mi WNW 19.6 mph 23.0 mph N/A   Overcast
10:55 AM 37.4 °F 27.2 °F 28.4 °F 70% 29.81 in 10.0 mi WNW 19.6 mph 26.5 mph N/A   Overcast
11:15 AM 37.4 °F 28.2 °F 28.4 °F 70% 29.81 in 10.0 mi WNW 16.1 mph 24.2 mph N/A   Overcast
11:16 AM 37.4 °F 28.2 °F 28.4 °F 70% 29.81 in 10.0 mi WNW 16.1 mph 24.2 mph N/A   Overcast
11:35 AM 39.2 °F 30.2 °F 30.2 °F 70% 29.81 in 10.0 mi West 17.3 mph - N/A   Overcast
11:55 AM 39.2 °F 29.8 °F 28.4 °F 65% 29.81 in 10.0 mi WNW 18.4 mph 25.3 mph N/A   Overcast
12:35 PM 39.2 °F 30.2 °F 28.4 °F 65% 29.82 in 10.0 mi WNW 17.3 mph - N/A   Overcast
12:55 PM 39.2 °F 30.2 °F 28.4 °F 65% 29.82 in 10.0 mi WNW 17.3 mph 23.0 mph N/A   Overcast
1:15 PM 39.2 °F 30.5 °F 28.4 °F 65% 29.82 in 10.0 mi West 16.1 mph 23.0 mph N/A   Overcast
1:16 PM 41.0 °F 33.1 °F 28.4 °F 61% 29.82 in 10.0 mi West 15.0 mph 23.0 mph N/A   Overcast
1:35 PM 41.0 °F 32.8 °F 28.4 °F 61% 29.82 in 10.0 mi WNW 16.1 mph 23.0 mph N/A   Overcast
1:55 PM 41.0 °F 31.6 °F 28.4 °F 61% 29.83 in 10.0 mi WNW 20.7 mph - N/A   Overcast
1:56 PM 41.0 °F 31.9 °F 28.4 °F 61% 29.83 in 10.0 mi WNW 19.6 mph - N/A   Overcast
2:15 PM 41.0 °F 32.8 °F 28.4 °F 61% 29.83 in 10.0 mi WNW 16.1 mph 21.9 mph N/A   Overcast
2:16 PM 41.0 °F 33.1 °F 28.4 °F 61% 29.83 in 10.0 mi WNW 15.0 mph 21.9 mph N/A   Overcast
2:35 PM 41.0 °F 31.9 °F 28.4 °F 61% 29.84 in 10.0 mi WNW 19.6 mph - N/A   Overcast
2:36 PM 41.0 °F 31.9 °F 28.4 °F 61% 29.83 in 10.0 mi WNW 19.6 mph - N/A   Overcast
2:55 PM 42.8 °F 34.8 °F 28.4 °F 57% 29.84 in 10.0 mi WNW 17.3 mph 21.9 mph N/A   Overcast
2:56 PM 42.8 °F 34.5 °F 28.4 °F 57% 29.84 in 10.0 mi WNW 18.4 mph 21.9 mph N/A   Overcast
3:15 PM 42.8 °F 34.8 °F 28.4 °F 57% 29.84 in 10.0 mi West 17.3 mph 23.0 mph N/A   Mostly Cloudy
3:35 PM 41.0 °F 32.5 °F 28.4 °F 61% 29.85 in 10.0 mi WNW 17.3 mph 21.9 mph N/A   Overcast
3:36 PM 41.0 °F 32.5 °F 28.4 °F 61% 29.85 in 10.0 mi WNW 17.3 mph 21.9 mph N/A   Overcast
3:55 PM 41.0 °F 32.8 °F 28.4 °F 61% 29.85 in 10.0 mi WNW 16.1 mph - N/A   Overcast
4:15 PM 42.8 °F 34.8 °F 28.4 °F 57% 29.86 in 10.0 mi West 17.3 mph - N/A   Overcast
4:35 PM 41.0 °F 32.8 °F 28.4 °F 61% 29.87 in 10.0 mi WNW 16.1 mph 23.0 mph N/A   Overcast
4:36 PM 41.0 °F 32.8 °F 28.4 °F 61% 29.87 in 10.0 mi WNW 16.1 mph 23.0 mph N/A   Overcast
4:55 PM 41.0 °F 33.5 °F 28.4 °F 61% 29.88 in 10.0 mi WNW 13.8 mph 19.6 mph N/A   Overcast
5:15 PM 41.0 °F 32.8 °F 30.2 °F 65% 29.88 in 10.0 mi WNW 16.1 mph 21.9 mph N/A   Overcast
5:35 PM 41.0 °F 32.8 °F 30.2 °F 65% 29.89 in 10.0 mi WNW 16.1 mph 20.7 mph N/A   Overcast
5:36 PM 41.0 °F 32.8 °F 30.2 °F 65% 29.89 in 10.0 mi WNW 16.1 mph 20.7 mph N/A   Overcast
5:55 PM 39.2 °F 30.8 °F 30.2 °F 70% 29.89 in 10.0 mi WNW 15.0 mph 19.6 mph N/A   Overcast
6:15 PM 39.2 °F 32.0 °F 30.2 °F 70% 29.90 in 10.0 mi WNW 11.5 mph - N/A   Overcast
6:16 PM 39.2 °F 32.0 °F 30.2 °F 70% 29.90 in 10.0 mi WNW 11.5 mph - N/A   Overcast
6:35 PM 39.2 °F 32.5 °F 30.2 °F 70% 29.90 in 10.0 mi West 10.4 mph - N/A   Overcast
6:55 PM 39.2 °F 31.6 °F 30.2 °F 70% 29.91 in 10.0 mi WNW 12.7 mph - N/A   Overcast
7:15 PM 39.2 °F 33.0 °F 32.0 °F 75% 29.92 in 10.0 mi WNW 9.2 mph - N/A   Overcast
7:16 PM 39.2 °F 33.0 °F 32.0 °F 75% 29.92 in 10.0 mi WNW 9.2 mph - N/A   Overcast
7:35 PM 39.2 °F 34.2 °F 32.0 °F 75% 29.93 in 10.0 mi West 6.9 mph - N/A   Overcast
7:55 PM 37.4 °F 32.8 °F 32.0 °F 81% 29.93 in 10.0 mi West 5.8 mph - N/A   Overcast
7:56 PM 37.4 °F 32.1 °F 32.0 °F 81% 29.93 in 10.0 mi West 6.9 mph - N/A   Overcast
8:15 PM 37.4 °F 32.8 °F 32.0 °F 81% 29.94 in 10.0 mi West 5.8 mph - N/A   Overcast
8:16 PM 37.4 °F 32.1 °F 32.0 °F 81% 29.94 in 10.0 mi West 6.9 mph - N/A   Overcast
8:35 PM 37.4 °F 32.1 °F 30.2 °F 75% 29.94 in 10.0 mi West 6.9 mph - N/A   Overcast
8:55 PM 37.4 °F 32.1 °F 30.2 °F 75% 29.95 in 10.0 mi West 6.9 mph - N/A   Overcast
9:15 PM 37.4 °F 32.1 °F 30.2 °F 75% 29.95 in 10.0 mi West 6.9 mph - N/A   Overcast
9:35 PM 37.4 °F 32.1 °F 30.2 °F 75% 29.96 in 10.0 mi West 6.9 mph - N/A   Mostly Cloudy
9:55 PM 35.6 °F 29.2 °F 30.2 °F 81% 29.96 in 10.0 mi West 8.1 mph - N/A   Scattered Clouds
10:15 PM 33.8 °F 28.6 °F 30.2 °F 87% 29.97 in 10.0 mi West 5.8 mph - N/A   Scattered Clouds
10:35 PM 35.6 °F 29.9 °F 30.2 °F 81% 29.97 in 10.0 mi West 6.9 mph - N/A   Mostly Cloudy
10:55 PM 35.6 °F 29.9 °F 30.2 °F 81% 29.97 in 10.0 mi West 6.9 mph - N/A   Overcast
11:15 PM 35.6 °F 29.9 °F 30.2 °F 81% 29.97 in 10.0 mi WNW 6.9 mph - N/A   Overcast
11:35 PM 35.6 °F 31.7 °F 30.2 °F 81% 29.97 in 10.0 mi West 4.6 mph - N/A   Overcast
11:36 PM 35.6 °F 30.7 °F 30.2 °F 81% 29.97 in 10.0 mi West 5.8 mph - N/A   Overcast
11:55 PM 35.6 °F 29.9 °F 30.2 °F 81% 29.97 in 10.0 mi West 6.9 mph - N/A   Overcast